Miley Memorial Field Big Piney US
ICAO: KBPI
IATA: BPI
Category: Medium
Scheduled Services: No

Elevation: 6990 ft
TransAlt. 18000 ft.

Airport Communications:
ASOS:135.225
CASPER RDO:122.3
CTAF/UNICOM:122.8

KBPI Zoom In..

If you have problems with the map follow the link
https://www.worldairports.se/pages/airport.php?
ICAO=KBPI

Runways:

(A) RW 08 length 3301 ft width 60 ft
---- / hdg 77

(B) RW 13 length 6802 ft width 75 ft
---- / hdg 132

(C) RW 26 length 3301 ft width 60 ft
---- / hdg 257

(D) RW 31 length 6802 ft width 75 ft
---- / hdg 312

Location; KBPI
Day. 27 / Time. 04.53 Zulu
* Altimeter: 29.99
* Temperature: -07° c. -19.4°f.
* Wind from: 140° Speed 03 kn.
Dewpoint: -09° c.
Visibility: 10 Statute Miles.
Clouds: Broken 4500 ft.
Clouds: Overcast 8000 ft.

KBPI 270453Z AUTO 14003KT 10SM BKN045 OVC080 M07/M09 A2999 RMK AO2 SLP209 T10721089


Wind From 140°
Speed 03 kn.

 
 
jpsmedia worldairports.se 2020   terms of use